createdAt,value
2018-02-12T00:00:15.898Z,99.99
2018-02-12T00:01:15.952Z,99.99
2018-02-12T00:02:16.007Z,99.99
2018-02-12T00:03:16.059Z,99.99
2018-02-12T00:04:16.114Z,99.99
2018-02-12T00:05:16.169Z,99.99
2018-02-12T00:06:16.222Z,99.99
2018-02-12T00:07:16.276Z,99.99
2018-02-12T00:08:16.330Z,99.99
2018-02-12T00:09:16.384Z,99.99
2018-02-12T00:10:16.438Z,99.99
2018-02-12T00:11:16.491Z,99.99
2018-02-12T00:12:16.545Z,99.99
2018-02-12T00:13:16.599Z,99.99
2018-02-12T00:14:16.653Z,99.99
2018-02-12T00:15:16.705Z,99.99
2018-02-12T00:16:16.762Z,99.99
2018-02-12T00:17:16.814Z,99.99
2018-02-12T00:18:16.868Z,99.99
2018-02-12T00:19:16.922Z,99.99
2018-02-12T00:20:16.975Z,99.99
2018-02-12T00:21:17.028Z,99.99
2018-02-12T00:22:17.083Z,99.99
2018-02-12T00:23:17.136Z,99.99
2018-02-12T00:24:17.198Z,99.99
2018-02-12T00:25:17.244Z,99.99
2018-02-12T00:26:17.297Z,99.99
2018-02-12T00:27:17.361Z,99.99
2018-02-12T00:28:17.404Z,99.99
2018-02-12T00:29:17.460Z,99.99
2018-02-12T00:30:17.512Z,99.99
2018-02-12T00:31:17.735Z,99.99
2018-02-12T00:32:17.618Z,99.99
2018-02-12T00:33:17.674Z,99.99
2018-02-12T00:34:17.729Z,99.99
2018-02-12T00:35:17.780Z,99.48
2018-02-12T00:36:17.833Z,99.01
2018-02-12T00:37:17.888Z,99.38
2018-02-12T00:38:17.941Z,99.57
2018-02-12T00:39:17.994Z,98.63
2018-02-12T00:40:18.048Z,99.01
2018-02-12T00:41:18.103Z,99.29
2018-02-12T00:42:18.157Z,99.85
2018-02-12T00:43:18.210Z,99.99
2018-02-12T00:44:18.266Z,99.99
2018-02-12T00:45:18.319Z,99.99
2018-02-12T00:46:18.373Z,99.99
2018-02-12T00:47:18.425Z,99.99
2018-02-12T00:48:18.478Z,99.99
2018-02-12T00:49:18.540Z,99.57
2018-02-12T00:50:18.587Z,99.99
2018-02-12T00:51:18.639Z,99.19
2018-02-12T00:52:18.694Z,98.53
2018-02-12T00:53:18.748Z,98.15
2018-02-12T00:54:18.803Z,97.96
2018-02-12T00:55:18.854Z,97.30
2018-02-12T00:56:18.908Z,97.58
2018-02-12T00:57:18.962Z,98.44
2018-02-12T00:58:19.015Z,98.53
2018-02-12T00:59:19.070Z,98.15
2018-02-12T01:00:19.173Z,98.15
2018-02-12T01:01:19.177Z,97.96
2018-02-12T01:02:19.232Z,97.87
2018-02-12T01:03:19.284Z,97.49
2018-02-12T01:04:19.340Z,97.87
2018-02-12T01:05:19.392Z,98.25
2018-02-12T01:06:19.447Z,96.92
2018-02-12T01:07:19.500Z,95.50
2018-02-12T01:08:19.554Z,96.73
2018-02-12T01:09:19.610Z,96.16
2018-02-12T01:10:19.661Z,96.83
2018-02-12T01:11:19.714Z,96.73
2018-02-12T01:12:19.768Z,97.58
2018-02-12T01:13:19.822Z,98.15
2018-02-12T01:14:19.878Z,98.63
2018-02-12T01:15:19.930Z,97.58
2018-02-12T01:16:19.984Z,97.87
2018-02-12T01:17:20.038Z,98.15
2018-02-12T01:18:20.093Z,97.49
2018-02-12T01:19:20.145Z,97.02
2018-02-12T01:20:20.201Z,97.49
2018-02-12T01:21:20.254Z,97.49
2018-02-12T01:22:20.309Z,96.54
2018-02-12T01:23:20.360Z,97.20
2018-02-12T01:24:20.418Z,95.40
2018-02-12T01:25:20.468Z,96.16
2018-02-12T01:26:20.523Z,95.69
2018-02-12T01:27:20.576Z,96.83
2018-02-12T01:28:20.630Z,97.87
2018-02-12T01:29:20.685Z,97.49
2018-02-12T01:30:20.737Z,97.20
2018-02-12T01:31:20.792Z,97.02
2018-02-12T01:32:20.846Z,95.50
2018-02-12T01:33:20.899Z,93.32
2018-02-12T01:34:20.953Z,94.08
2018-02-12T01:35:21.007Z,94.74
2018-02-12T01:36:21.067Z,93.23
2018-02-12T01:37:21.115Z,94.93
2018-02-12T01:38:21.170Z,96.35
2018-02-12T01:39:21.222Z,97.20
2018-02-12T01:40:21.277Z,97.30
2018-02-12T01:41:21.331Z,96.54
2018-02-12T01:42:21.383Z,94.46
2018-02-12T01:43:21.437Z,95.12
2018-02-12T01:44:21.490Z,95.78
2018-02-12T01:45:21.545Z,97.20
2018-02-12T01:46:21.902Z,97.02
2018-02-12T01:47:21.654Z,96.54
2018-02-12T01:48:21.708Z,95.03
2018-02-12T01:49:21.762Z,97.20
2018-02-12T01:50:21.815Z,98.06
2018-02-12T01:51:21.868Z,97.39
2018-02-12T01:52:21.923Z,96.16
2018-02-12T01:53:21.986Z,97.11
2018-02-12T01:54:22.030Z,96.83
2018-02-12T01:55:22.084Z,96.35
2018-02-12T01:56:22.138Z,95.97
2018-02-12T01:57:22.191Z,96.16
2018-02-12T01:58:22.245Z,97.11
2018-02-12T01:59:22.299Z,97.30
2018-02-12T02:00:22.352Z,97.02
2018-02-12T02:01:22.406Z,96.54
2018-02-12T02:02:22.463Z,98.06
2018-02-12T02:03:22.515Z,98.44
2018-02-12T02:04:22.568Z,98.06
2018-02-12T02:05:22.622Z,98.53
2018-02-12T02:06:22.677Z,97.68
2018-02-12T02:07:22.729Z,96.92
2018-02-12T02:08:22.782Z,95.88
2018-02-12T02:09:22.846Z,95.59
2018-02-12T02:10:22.890Z,95.50
2018-02-12T02:11:22.944Z,97.02
2018-02-12T02:12:22.999Z,97.96
2018-02-12T02:13:23.051Z,99.01
2018-02-12T02:14:23.356Z,99.19
2018-02-12T02:15:23.158Z,98.06
2018-02-12T02:16:23.216Z,97.96
2018-02-12T02:17:23.268Z,97.58
2018-02-12T02:18:23.322Z,96.83
2018-02-12T02:19:23.375Z,97.02
2018-02-12T02:20:23.429Z,96.92
2018-02-12T02:21:23.482Z,97.11
2018-02-12T02:22:23.537Z,96.64
2018-02-12T02:23:23.589Z,96.73
2018-02-12T02:24:23.644Z,96.83
2018-02-12T02:25:23.697Z,97.02
2018-02-12T02:26:23.752Z,96.64
2018-02-12T02:27:23.804Z,96.35
2018-02-12T02:28:23.860Z,96.83
2018-02-12T02:29:23.913Z,97.68
2018-02-12T02:30:23.968Z,96.83
2018-02-12T02:31:24.021Z,96.35
2018-02-12T02:32:24.075Z,96.54
2018-02-12T02:33:24.136Z,95.97
2018-02-12T02:34:24.183Z,95.69
2018-02-12T02:35:24.236Z,95.97
2018-02-12T02:36:24.289Z,95.97
2018-02-12T02:37:24.344Z,96.16
2018-02-12T02:38:24.399Z,95.97
2018-02-12T02:39:24.452Z,94.84
2018-02-12T02:40:24.506Z,94.18
2018-02-12T02:41:24.557Z,93.89
2018-02-12T02:42:24.613Z,93.51
2018-02-12T02:43:24.917Z,94.08
2018-02-12T02:44:24.719Z,93.99
2018-02-12T02:45:24.775Z,94.27
2018-02-12T02:46:24.828Z,94.08
2018-02-12T02:47:24.881Z,93.80
2018-02-12T02:48:24.986Z,93.13
2018-02-12T02:49:24.990Z,92.94
2018-02-12T02:50:25.045Z,92.85
2018-02-12T02:51:25.098Z,93.23
2018-02-12T02:52:25.154Z,93.89
2018-02-12T02:53:25.206Z,94.65
2018-02-12T02:54:25.259Z,95.03
2018-02-12T02:55:25.313Z,95.12
2018-02-12T02:56:25.365Z,95.40
2018-02-12T02:57:25.420Z,95.69
2018-02-12T02:58:25.476Z,95.40
2018-02-12T02:59:25.526Z,95.31
2018-02-12T03:00:25.580Z,96.16
2018-02-12T03:01:25.636Z,95.12
2018-02-12T03:02:25.688Z,96.64
2018-02-12T03:03:25.743Z,97.77
2018-02-12T03:04:25.795Z,97.87
2018-02-12T03:05:26.101Z,97.30
2018-02-12T03:06:25.904Z,96.73
2018-02-12T03:07:25.959Z,96.83
2018-02-12T03:08:26.012Z,97.39
2018-02-12T03:09:26.065Z,96.54
2018-02-12T03:10:26.120Z,97.11
2018-02-12T03:11:26.473Z,97.11
2018-02-12T03:12:26.226Z,97.39
2018-02-12T03:13:26.280Z,96.83
2018-02-12T03:14:26.334Z,96.83
2018-02-12T03:15:26.387Z,97.49
2018-02-12T03:16:26.444Z,97.39
2018-02-12T03:17:26.501Z,96.54
2018-02-12T03:18:26.551Z,97.20
2018-02-12T03:19:26.603Z,95.88
2018-02-12T03:20:26.656Z,95.78
2018-02-12T03:21:26.712Z,95.78
2018-02-12T03:22:26.765Z,96.73
2018-02-12T03:23:26.869Z,98.01
2018-02-12T03:24:26.872Z,98.44
2018-02-12T03:25:26.926Z,98.15
2018-02-12T03:26:26.980Z,98.06
2018-02-12T03:27:27.032Z,97.58
2018-02-12T03:28:27.088Z,96.54
2018-02-12T03:29:27.141Z,96.73
2018-02-12T03:30:27.195Z,96.73
2018-02-12T03:31:27.248Z,97.30
2018-02-12T03:32:27.302Z,98.44
2018-02-12T03:33:27.356Z,97.49
2018-02-12T03:34:27.410Z,97.87
2018-02-12T03:35:27.462Z,98.25
2018-02-12T03:36:27.516Z,97.77
2018-02-12T03:37:27.571Z,98.86
2018-02-12T03:38:27.624Z,99.24
2018-02-12T03:39:27.678Z,99.99
2018-02-12T03:40:27.731Z,99.80
2018-02-12T03:41:27.784Z,99.99
2018-02-12T03:42:27.838Z,99.52
2018-02-12T03:43:27.892Z,99.52
2018-02-12T03:44:27.944Z,99.43
2018-02-12T03:45:27.999Z,99.57
2018-02-12T03:46:28.302Z,99.43
2018-02-12T03:47:28.104Z,98.86
2018-02-12T03:48:28.158Z,96.54
2018-02-12T03:49:28.213Z,95.97
2018-02-12T03:50:28.267Z,96.83
2018-02-12T03:51:28.322Z,97.11
2018-02-12T03:52:28.371Z,96.92
2018-02-12T03:53:28.427Z,96.92
2018-02-12T03:54:28.479Z,96.35
2018-02-12T03:55:28.542Z,96.07
2018-02-12T03:56:28.585Z,95.40
2018-02-12T03:57:28.657Z,95.78
2018-02-12T03:58:28.693Z,95.12
2018-02-12T03:59:28.745Z,94.93
2018-02-12T04:00:28.799Z,94.84
2018-02-12T04:01:28.854Z,94.65
2018-02-12T04:02:28.908Z,94.93
2018-02-12T04:03:28.962Z,94.84
2018-02-12T04:04:29.014Z,94.93
2018-02-12T04:05:29.067Z,94.74
2018-02-12T04:06:29.122Z,95.03
2018-02-12T04:07:29.173Z,95.40
2018-02-12T04:08:29.227Z,94.74
2018-02-12T04:09:29.281Z,94.84
2018-02-12T04:10:29.336Z,95.12
2018-02-12T04:11:29.388Z,95.88
2018-02-12T04:12:29.442Z,96.26
2018-02-12T04:13:29.496Z,95.50
2018-02-12T04:14:29.550Z,95.12
2018-02-12T04:15:29.603Z,94.93
2018-02-12T04:16:29.658Z,95.69
2018-02-12T04:17:29.711Z,95.59
2018-02-12T04:18:29.764Z,95.97
2018-02-12T04:19:29.817Z,96.07
2018-02-12T04:20:29.870Z,96.26
2018-02-12T04:21:29.924Z,97.11
2018-02-12T04:22:29.977Z,97.49
2018-02-12T04:23:30.031Z,97.39
2018-02-12T04:24:30.084Z,97.96
2018-02-12T04:25:30.138Z,97.87
2018-02-12T04:26:30.193Z,97.49
2018-02-12T04:27:30.244Z,97.49
2018-02-12T04:28:30.300Z,97.96
2018-02-12T04:29:30.353Z,97.77
2018-02-12T04:30:30.406Z,97.49
2018-02-12T04:31:30.460Z,96.54
2018-02-12T04:32:30.514Z,95.88
2018-02-12T04:33:30.566Z,96.26
2018-02-12T04:34:30.621Z,95.78
2018-02-12T04:35:30.674Z,96.54
2018-02-12T04:36:30.726Z,96.35
2018-02-12T04:37:30.781Z,96.64
2018-02-12T04:38:30.835Z,96.83
2018-02-12T04:39:30.888Z,97.11
2018-02-12T04:40:30.940Z,97.11
2018-02-12T04:41:30.994Z,97.11
2018-02-12T04:42:31.051Z,97.11
2018-02-12T04:43:31.100Z,97.02
2018-02-12T04:44:31.154Z,96.83
2018-02-12T04:45:31.208Z,97.49
2018-02-12T04:46:31.262Z,97.06
2018-02-12T04:47:31.316Z,97.53
2018-02-12T04:48:31.372Z,98.01
2018-02-12T04:49:31.423Z,97.77
2018-02-12T04:50:31.474Z,98.06
2018-02-12T04:51:31.527Z,97.82
2018-02-12T04:52:31.581Z,97.44
2018-02-12T04:53:31.635Z,98.39
2018-02-12T04:54:31.689Z,97.63
2018-02-12T04:55:31.742Z,98.01
2018-02-12T04:56:31.795Z,97.72
2018-02-12T04:57:31.850Z,98.20
2018-02-12T04:58:31.902Z,98.96
2018-02-12T04:59:31.955Z,98.67
2018-02-12T05:00:32.044Z,97.53
2018-02-12T05:01:32.062Z,98.58
2018-02-12T05:02:32.116Z,98.86
2018-02-12T05:03:32.169Z,98.10
2018-02-12T05:04:32.224Z,97.72
2018-02-12T05:05:32.276Z,97.53
2018-02-12T05:06:32.331Z,97.16
2018-02-12T05:07:32.383Z,97.82
2018-02-12T05:08:32.437Z,97.72
2018-02-12T05:09:32.489Z,97.44
2018-02-12T05:10:32.545Z,97.44
2018-02-12T05:11:32.596Z,97.63
2018-02-12T05:12:32.651Z,97.25
2018-02-12T05:13:32.704Z,98.10
2018-02-12T05:14:32.757Z,99.05
2018-02-12T05:15:32.812Z,99.62
2018-02-12T05:16:32.863Z,99.99
2018-02-12T05:17:32.918Z,98.39
2018-02-12T05:18:32.970Z,99.15
2018-02-12T05:19:33.023Z,99.90
2018-02-12T05:20:33.078Z,99.90
2018-02-12T05:21:33.130Z,99.71
2018-02-12T05:22:33.185Z,99.05
2018-02-12T05:23:33.240Z,99.33
2018-02-12T05:24:33.290Z,99.80
2018-02-12T05:25:33.343Z,99.62
2018-02-12T05:26:33.397Z,99.05
2018-02-12T05:27:33.449Z,98.48
2018-02-12T05:28:33.503Z,98.10
2018-02-12T05:29:33.558Z,98.77
2018-02-12T05:30:33.610Z,99.05
2018-02-12T05:31:33.665Z,98.77
2018-02-12T05:32:33.754Z,98.86
2018-02-12T05:33:33.770Z,98.77
2018-02-12T05:34:33.825Z,98.77
2018-02-12T05:35:33.876Z,98.29
2018-02-12T05:36:33.929Z,98.48
2018-02-12T05:37:33.982Z,99.80
2018-02-12T05:38:34.037Z,99.99
2018-02-12T05:39:34.240Z,99.99
2018-02-12T05:40:34.143Z,99.71
2018-02-12T05:41:34.196Z,99.43
2018-02-12T05:42:34.250Z,99.15
2018-02-12T05:43:34.303Z,99.62
2018-02-12T05:44:34.356Z,99.62
2018-02-12T05:45:34.410Z,99.99
2018-02-12T05:46:34.464Z,99.71
2018-02-12T05:47:34.521Z,99.43
2018-02-12T05:48:34.569Z,98.48
2018-02-12T05:49:34.624Z,97.82
2018-02-12T05:50:34.681Z,97.44
2018-02-12T05:51:34.729Z,97.72
2018-02-12T05:52:34.783Z,97.72
2018-02-12T05:53:34.836Z,97.44
2018-02-12T05:54:34.889Z,97.63
2018-02-12T05:55:34.941Z,97.72
2018-02-12T05:56:34.996Z,98.29
2018-02-12T05:57:35.049Z,98.58
2018-02-12T05:58:35.102Z,99.05
2018-02-12T05:59:35.155Z,99.33
2018-02-12T06:00:35.207Z,99.99
2018-02-12T06:01:35.412Z,99.99
2018-02-12T06:02:35.316Z,99.99
2018-02-12T06:03:35.368Z,99.99
2018-02-12T06:04:35.423Z,99.62
2018-02-12T06:05:35.474Z,99.24
2018-02-12T06:06:35.529Z,99.80
2018-02-12T06:07:35.583Z,99.15
2018-02-12T06:08:35.635Z,98.48
2018-02-12T06:09:35.688Z,99.43
2018-02-12T06:10:35.741Z,99.99
2018-02-12T06:11:35.794Z,99.99
2018-02-12T06:12:35.848Z,99.99
2018-02-12T06:13:36.212Z,99.80
2018-02-12T06:14:35.955Z,99.99
2018-02-12T06:15:36.008Z,99.99
2018-02-12T06:16:36.063Z,98.96
2018-02-12T06:17:36.366Z,97.63
2018-02-12T06:18:36.167Z,98.29
2018-02-12T06:19:36.220Z,97.91
2018-02-12T06:20:36.275Z,97.53
2018-02-12T06:21:36.327Z,98.01
2018-02-12T06:22:36.380Z,97.53
2018-02-12T06:23:36.434Z,97.16
2018-02-12T06:24:36.503Z,96.97
2018-02-12T06:25:36.565Z,97.82
2018-02-12T06:26:36.612Z,98.20
2018-02-12T06:27:36.646Z,98.20
2018-02-12T06:28:36.709Z,98.48
2018-02-12T06:29:36.772Z,98.48
2018-02-12T06:30:36.806Z,98.01
2018-02-12T06:31:36.872Z,98.77
2018-02-12T06:32:36.913Z,99.24
2018-02-12T06:33:36.966Z,99.71
2018-02-12T06:34:37.275Z,99.62
2018-02-12T06:35:37.075Z,99.80
2018-02-12T06:36:37.133Z,99.52
2018-02-12T06:37:37.183Z,99.90
2018-02-12T06:38:37.234Z,99.80
2018-02-12T06:39:37.286Z,99.99
2018-02-12T06:40:37.340Z,99.71
2018-02-12T06:41:37.393Z,99.99
2018-02-12T06:42:37.448Z,99.99
2018-02-12T06:43:37.499Z,99.99
2018-02-12T06:44:37.554Z,99.99
2018-02-12T06:45:37.606Z,99.99
2018-02-12T06:46:37.692Z,99.99
2018-02-12T06:47:37.713Z,99.99
2018-02-12T06:48:37.765Z,99.99
2018-02-12T06:49:37.820Z,99.99
2018-02-12T06:50:37.873Z,99.99
2018-02-12T06:51:37.927Z,99.99
2018-02-12T06:52:37.978Z,99.99
2018-02-12T06:53:38.033Z,99.99
2018-02-12T06:54:38.089Z,99.99
2018-02-12T06:55:38.140Z,99.99
2018-02-12T06:56:38.193Z,99.99
2018-02-12T06:57:38.246Z,99.99
2018-02-12T06:58:38.299Z,99.99
2018-02-12T06:59:38.351Z,99.99
2018-02-12T07:00:38.404Z,99.99
2018-02-12T07:01:38.459Z,99.99
2018-02-12T07:02:38.512Z,99.99
2018-02-12T07:03:38.563Z,99.99
2018-02-12T07:04:38.622Z,99.99
2018-02-12T07:05:39.395Z,99.99
2018-02-12T07:06:38.725Z,99.99
2018-02-12T07:07:38.778Z,99.99
2018-02-12T07:08:38.832Z,99.99
2018-02-12T07:09:38.884Z,99.99
2018-02-12T07:10:38.938Z,99.99
2018-02-12T07:11:38.991Z,99.99
2018-02-12T07:12:39.045Z,99.99
2018-02-12T07:13:39.098Z,99.99
2018-02-12T07:14:39.157Z,99.99
2018-02-12T07:15:39.204Z,99.99
2018-02-12T07:16:39.257Z,99.99
2018-02-12T07:17:39.310Z,99.99
2018-02-12T07:18:39.366Z,99.99
2018-02-12T07:19:39.420Z,99.99
2018-02-12T07:20:39.470Z,99.99
2018-02-12T07:21:39.527Z,99.99
2018-02-12T07:22:39.578Z,99.99
2018-02-12T07:23:39.631Z,99.99
2018-02-12T07:24:39.687Z,99.99
2018-02-12T07:25:39.739Z,99.99
2018-02-12T07:26:40.043Z,99.99
2018-02-12T07:27:39.844Z,99.99
2018-02-12T07:28:39.898Z,99.99
2018-02-12T07:29:39.951Z,99.99
2018-02-12T07:30:40.009Z,99.99
2018-02-12T07:31:40.057Z,99.99
2018-02-12T07:32:40.111Z,99.99
2018-02-12T07:33:40.165Z,99.99
2018-02-12T07:34:40.219Z,99.99
2018-02-12T07:35:40.272Z,99.99
2018-02-12T07:36:40.326Z,99.99
2018-02-12T07:37:40.379Z,99.99
2018-02-12T07:38:40.432Z,99.99
2018-02-12T07:39:40.485Z,99.99
2018-02-12T07:40:40.539Z,99.99
2018-02-12T07:41:40.592Z,99.99
2018-02-12T07:42:40.648Z,99.99
2018-02-12T07:43:40.699Z,99.99
2018-02-12T07:44:40.754Z,99.99
2018-02-12T07:45:40.807Z,99.99
2018-02-12T07:46:40.861Z,99.99
2018-02-12T07:47:40.913Z,99.99
2018-02-12T07:48:40.968Z,99.99
2018-02-12T07:49:41.022Z,99.99
2018-02-12T07:50:41.074Z,99.99
2018-02-12T07:51:41.127Z,99.99
2018-02-12T07:52:41.182Z,99.99
2018-02-12T07:53:41.235Z,99.99
2018-02-12T07:54:41.289Z,99.99
2018-02-12T07:55:41.342Z,99.99
2018-02-12T07:56:41.396Z,99.99
2018-02-12T07:57:41.451Z,99.99
2018-02-12T07:58:41.503Z,99.99
2018-02-12T07:59:41.557Z,99.99
2018-02-12T08:00:41.611Z,99.99
2018-02-12T08:01:41.666Z,99.99
2018-02-12T08:02:41.719Z,99.99
2018-02-12T08:03:41.771Z,99.85
2018-02-12T08:04:41.828Z,99.99
2018-02-12T08:05:41.879Z,98.72
2018-02-12T08:06:41.935Z,97.87
2018-02-12T08:07:41.987Z,98.34
2018-02-12T08:08:42.041Z,97.58
2018-02-12T08:09:42.098Z,98.25
2018-02-12T08:10:42.149Z,99.48
2018-02-12T08:11:42.203Z,99.99
2018-02-12T08:12:42.256Z,99.99
2018-02-12T08:13:42.793Z,99.99
2018-02-12T08:14:42.364Z,99.99
2018-02-12T08:15:42.964Z,99.66
2018-02-12T08:16:42.471Z,99.10
2018-02-12T08:17:42.578Z,98.82
2018-02-12T08:18:42.582Z,98.72
2018-02-12T08:19:42.634Z,99.01
2018-02-12T08:20:42.688Z,98.91
2018-02-12T08:21:42.743Z,98.53
2018-02-12T08:22:42.796Z,98.91
2018-02-12T08:23:42.850Z,98.25
2018-02-12T08:24:43.528Z,97.96
2018-02-12T08:25:42.959Z,98.06
2018-02-12T08:26:43.013Z,98.06
2018-02-12T08:27:43.066Z,98.82
2018-02-12T08:28:43.120Z,98.15
2018-02-12T08:29:43.174Z,97.58
2018-02-12T08:30:43.228Z,98.06
2018-02-12T08:31:43.281Z,97.49
2018-02-12T08:32:43.336Z,97.87
2018-02-12T08:33:43.390Z,97.49
2018-02-12T08:34:43.444Z,97.68
2018-02-12T08:35:43.496Z,97.39
2018-02-12T08:36:43.550Z,95.78
2018-02-12T08:37:43.604Z,94.93
2018-02-12T08:38:43.657Z,93.89
2018-02-12T08:39:43.712Z,93.32
2018-02-12T08:40:43.766Z,93.23
2018-02-12T08:41:43.820Z,93.89
2018-02-12T08:42:43.873Z,93.80
2018-02-12T08:43:43.927Z,94.46
2018-02-12T08:44:43.981Z,94.18
2018-02-12T08:45:44.035Z,95.03
2018-02-12T08:46:44.089Z,95.97
2018-02-12T08:47:44.142Z,94.84
2018-02-12T08:48:44.197Z,93.23
2018-02-12T08:49:44.251Z,92.85
2018-02-12T08:50:44.306Z,92.90
2018-02-12T08:51:44.358Z,93.27
2018-02-12T08:52:44.414Z,93.46
2018-02-12T08:53:44.467Z,93.27
2018-02-12T08:54:44.521Z,93.75
2018-02-12T08:55:44.576Z,93.65
2018-02-12T08:56:44.632Z,93.18
2018-02-12T08:57:44.686Z,92.71
2018-02-12T08:58:44.739Z,92.80
2018-02-12T08:59:44.794Z,93.65
2018-02-12T09:00:44.852Z,93.65
2018-02-12T09:01:44.907Z,92.90
2018-02-12T09:02:44.960Z,92.14
2018-02-12T09:03:45.014Z,91.76
2018-02-12T09:04:45.069Z,91.48
2018-02-12T09:05:45.124Z,91.00
2018-02-12T09:06:45.179Z,91.00
2018-02-12T09:07:45.232Z,90.81
2018-02-12T09:08:45.289Z,90.63
2018-02-12T09:09:45.344Z,90.91
2018-02-12T09:10:45.398Z,90.91
2018-02-12T09:11:45.452Z,91.67
2018-02-12T09:12:45.509Z,92.14
2018-02-12T09:13:45.563Z,91.48
2018-02-12T09:14:45.623Z,91.76
2018-02-12T09:15:45.673Z,91.86
2018-02-12T09:16:45.729Z,91.76
2018-02-12T09:17:45.784Z,92.33
2018-02-12T09:18:45.838Z,92.61
2018-02-12T09:19:45.892Z,92.80
2018-02-12T09:20:45.961Z,93.18
2018-02-12T09:21:46.005Z,93.13
2018-02-12T09:22:46.059Z,93.46
2018-02-12T09:23:46.113Z,92.71
2018-02-12T09:24:46.320Z,92.71
2018-02-12T09:25:46.224Z,92.99
2018-02-12T09:26:46.279Z,92.90
2018-02-12T09:27:46.333Z,92.33
2018-02-12T09:28:46.388Z,92.24
2018-02-12T09:29:46.445Z,92.14
2018-02-12T09:30:46.498Z,91.67
2018-02-12T09:31:46.554Z,91.57
2018-02-12T09:32:46.610Z,91.57
2018-02-12T09:33:46.663Z,91.48
2018-02-12T09:34:46.719Z,91.48
2018-02-12T09:35:46.774Z,92.24
2018-02-12T09:36:46.829Z,91.76
2018-02-12T09:37:46.883Z,91.48
2018-02-12T09:38:46.939Z,91.29
2018-02-12T09:39:46.992Z,91.57
2018-02-12T09:40:47.047Z,91.00
2018-02-12T09:41:47.102Z,91.38
2018-02-12T09:42:47.158Z,90.81
2018-02-12T09:43:47.211Z,91.00
2018-02-12T09:44:47.268Z,91.38
2018-02-12T09:45:47.322Z,91.19
2018-02-12T09:46:47.377Z,91.10
2018-02-12T09:47:47.432Z,90.72
2018-02-12T09:48:47.485Z,91.57
2018-02-12T09:49:47.541Z,91.10
2018-02-12T09:50:47.596Z,91.19
2018-02-12T09:51:47.649Z,91.48
2018-02-12T09:52:47.705Z,90.25
2018-02-12T09:53:47.765Z,89.34
2018-02-12T09:54:47.816Z,90.10
2018-02-12T09:55:47.871Z,89.06
2018-02-12T09:56:47.927Z,88.40
2018-02-12T09:57:47.982Z,88.49
2018-02-12T09:58:48.045Z,88.11
2018-02-12T09:59:48.092Z,88.87
2018-02-12T10:00:48.162Z,88.78
2018-02-12T10:01:48.205Z,88.11
2018-02-12T10:02:48.262Z,87.35
2018-02-12T10:03:48.315Z,87.26
2018-02-12T10:04:48.373Z,87.07
2018-02-12T10:05:48.429Z,87.16
2018-02-12T10:06:48.486Z,86.79
2018-02-12T10:07:48.545Z,86.22
2018-02-12T10:08:48.597Z,85.46
2018-02-12T10:09:49.222Z,86.31
2018-02-12T10:10:48.711Z,86.98
2018-02-12T10:11:48.799Z,86.03
2018-02-12T10:12:48.825Z,86.03
2018-02-12T10:13:48.881Z,85.36
2018-02-12T10:14:49.725Z,85.36
2018-02-12T10:15:48.991Z,87.16
2018-02-12T10:16:49.050Z,86.88
2018-02-12T10:17:49.104Z,85.93
2018-02-12T10:18:49.159Z,86.69
2018-02-12T10:19:49.215Z,86.79
2018-02-12T10:20:49.271Z,87.45
2018-02-12T10:21:49.328Z,86.41
2018-02-12T10:22:49.384Z,86.12
2018-02-12T10:23:50.044Z,86.03
2018-02-12T10:24:49.497Z,86.41
2018-02-12T10:25:49.553Z,85.65
2018-02-12T10:26:49.610Z,83.75
2018-02-12T10:27:49.665Z,84.51
2018-02-12T10:28:49.721Z,84.70
2018-02-12T10:29:49.777Z,84.42
2018-02-12T10:30:49.832Z,84.04
2018-02-12T10:31:49.888Z,85.50
2018-02-12T10:32:49.945Z,84.84
2018-02-12T10:33:50.000Z,83.42
2018-02-12T10:34:50.058Z,83.42
2018-02-12T10:35:50.113Z,84.74
2018-02-12T10:36:50.170Z,83.61
2018-02-12T10:37:50.226Z,82.94
2018-02-12T10:38:50.282Z,83.51
2018-02-12T10:39:50.336Z,82.37
2018-02-12T10:40:50.393Z,83.04
2018-02-12T10:41:50.456Z,82.56
2018-02-12T10:42:50.507Z,82.94
2018-02-12T10:43:50.562Z,83.51
2018-02-12T10:44:50.620Z,83.04
2018-02-12T10:45:50.677Z,82.37
2018-02-12T10:46:50.733Z,82.28
2018-02-12T10:47:50.790Z,83.70
2018-02-12T10:48:51.096Z,83.42
2018-02-12T10:49:50.902Z,82.56
2018-02-12T10:50:50.959Z,81.99
2018-02-12T10:51:51.017Z,82.75
2018-02-12T10:52:51.076Z,81.62
2018-02-12T10:53:51.131Z,83.42
2018-02-12T10:54:51.188Z,83.13
2018-02-12T10:55:51.244Z,82.09
2018-02-12T10:56:51.302Z,82.75
2018-02-12T10:57:51.357Z,81.99
2018-02-12T10:58:51.414Z,81.81
2018-02-12T10:59:51.471Z,82.28
2018-02-12T11:00:51.527Z,82.09
2018-02-12T11:01:51.584Z,82.47
2018-02-12T11:02:51.643Z,81.71
2018-02-12T11:03:51.697Z,81.52
2018-02-12T11:04:51.755Z,79.91
2018-02-12T11:05:51.813Z,78.77
2018-02-12T11:06:51.868Z,79.53
2018-02-12T11:07:51.925Z,79.72
2018-02-12T11:08:51.984Z,80.76
2018-02-12T11:09:52.039Z,81.99
2018-02-12T11:10:52.098Z,82.09
2018-02-12T11:11:52.153Z,81.33
2018-02-12T11:12:52.212Z,81.99
2018-02-12T11:13:52.268Z,80.29
2018-02-12T11:14:52.325Z,80.43
2018-02-12T11:15:52.381Z,79.19
2018-02-12T11:16:52.440Z,79.85
2018-02-12T11:17:52.497Z,80.14
2018-02-12T11:18:52.553Z,80.62
2018-02-12T11:19:52.610Z,80.33
2018-02-12T11:20:52.667Z,80.43
2018-02-12T11:21:52.727Z,79.95
2018-02-12T11:22:52.783Z,79.47
2018-02-12T11:23:52.840Z,78.15
2018-02-12T11:24:52.897Z,79.19
2018-02-12T11:25:52.955Z,78.91
2018-02-12T11:26:53.014Z,79.00
2018-02-12T11:27:53.091Z,78.43
2018-02-12T11:28:53.379Z,77.48
2018-02-12T11:29:53.186Z,75.87
2018-02-12T11:30:53.243Z,75.68
2018-02-12T11:31:53.300Z,76.25
2018-02-12T11:32:53.357Z,75.59
2018-02-12T11:33:53.418Z,76.06
2018-02-12T11:34:53.473Z,74.45
2018-02-12T11:35:53.532Z,75.31
2018-02-12T11:36:53.586Z,74.49
2018-02-12T11:37:53.645Z,73.69
2018-02-12T11:38:53.702Z,73.25
2018-02-12T11:39:53.758Z,72.97
2018-02-12T11:40:53.820Z,72.11
2018-02-12T11:41:53.875Z,70.12
2018-02-12T11:42:53.933Z,70.03
2018-02-12T11:43:53.989Z,70.54
2018-02-12T11:44:54.047Z,70.25
2018-02-12T11:45:54.106Z,66.77
2018-02-12T11:46:54.164Z,64.72
2018-02-12T11:47:54.226Z,62.08
2018-02-12T11:48:54.281Z,59.93
2018-02-12T11:49:54.340Z,60.98
2018-02-12T11:50:54.400Z,63.13
2018-02-12T11:51:54.659Z,63.60
2018-02-12T11:52:54.522Z,63.04
2018-02-12T11:53:54.579Z,60.35
2018-02-12T11:54:54.638Z,59.90
2018-02-12T11:55:54.702Z,62.21
2018-02-12T11:56:54.758Z,58.81
2018-02-12T11:57:54.822Z,56.05
2018-02-12T11:58:54.876Z,55.65
2018-02-12T11:59:54.935Z,56.85
2018-02-12T12:00:54.997Z,58.80
2018-02-12T12:01:55.055Z,58.76
2018-02-12T12:02:55.116Z,57.52
2018-02-12T12:03:55.206Z,57.52
2018-02-12T12:04:55.238Z,57.62
2018-02-12T12:05:55.296Z,57.24
2018-02-12T12:06:55.356Z,57.50
2018-02-12T12:07:55.415Z,57.90
2018-02-12T12:08:55.477Z,57.17
2018-02-12T12:09:55.536Z,55.65
2018-02-12T12:10:55.597Z,54.06
2018-02-12T12:11:55.655Z,53.04
2018-02-12T12:12:55.722Z,55.21
2018-02-12T12:13:55.777Z,58.28
2018-02-12T12:14:56.036Z,56.88
2018-02-12T12:15:55.953Z,56.95
2018-02-12T12:16:55.955Z,54.72
2018-02-12T12:17:56.017Z,54.86
2018-02-12T12:18:56.076Z,55.93
2018-02-12T12:19:56.135Z,54.66
2018-02-12T12:20:56.200Z,52.92
2018-02-12T12:21:56.256Z,53.77
2018-02-12T12:22:56.317Z,52.56
2018-02-12T12:23:56.376Z,51.23
2018-02-12T12:24:56.436Z,52.47
2018-02-12T12:25:56.496Z,51.75
2018-02-12T12:26:56.558Z,53.01
2018-02-12T12:27:56.616Z,52.82
2018-02-12T12:28:56.677Z,53.96
2018-02-12T12:29:56.738Z,53.01
2018-02-12T12:30:56.797Z,53.36
2018-02-12T12:31:56.869Z,52.28
2018-02-12T12:32:56.941Z,51.54
2018-02-12T12:33:56.979Z,48.39
2018-02-12T12:34:57.041Z,49.01
2018-02-12T12:35:57.100Z,50.32
2018-02-12T12:36:57.161Z,52.48
2018-02-12T12:37:57.223Z,55.21
2018-02-12T12:38:57.284Z,56.29
2018-02-12T12:39:57.343Z,55.78
2018-02-12T12:40:57.406Z,57.30
2018-02-12T12:41:57.465Z,56.35
2018-02-12T12:42:57.526Z,58.00
2018-02-12T12:43:57.586Z,58.39
2018-02-12T12:44:57.648Z,58.51
2018-02-12T12:45:57.715Z,57.24
2018-02-12T12:46:57.770Z,52.98
2018-02-12T12:47:57.829Z,52.36
2018-02-12T12:48:57.888Z,55.28
2018-02-12T12:49:57.950Z,54.45
2018-02-12T12:50:58.033Z,52.61
2018-02-12T12:51:58.068Z,52.58
2018-02-12T12:52:58.128Z,52.10